sensor_id;sensor_type;location;lat;lon;timestamp;pressure;altitude;pressure_sealevel;temperature;humidity
50302;BME280;36550;50.472;19.744;2023-04-15T00:00:51;96813.00;;;9.49;87.18
50302;BME280;36550;50.472;19.744;2023-04-15T00:04:36;96814.40;;;9.43;86.77
50302;BME280;36550;50.472;19.744;2023-04-15T00:08:26;96821.91;;;9.35;87.42
50302;BME280;36550;50.472;19.744;2023-04-15T00:11:51;96816.52;;;9.26;87.19
50302;BME280;36550;50.472;19.744;2023-04-15T00:14:57;96829.38;;;9.22;87.53
50302;BME280;36550;50.472;19.744;2023-04-15T00:18:39;96829.32;;;9.20;88.87
50302;BME280;36550;50.472;19.744;2023-04-15T00:22:25;96828.21;;;9.20;88.44
50302;BME280;36550;50.472;19.744;2023-04-15T00:26:30;96832.25;;;9.20;89.77
50302;BME280;36550;50.472;19.744;2023-04-15T00:30:23;96841.05;;;9.20;89.77
50302;BME280;36550;50.472;19.744;2023-04-15T00:34:12;96842.47;;;9.22;90.19
50302;BME280;36550;50.472;19.744;2023-04-15T00:38:01;96847.30;;;9.23;90.46
50302;BME280;36550;50.472;19.744;2023-04-15T00:41:46;96847.15;;;9.25;91.01
50302;BME280;36550;50.472;19.744;2023-04-15T00:45:41;96849.93;;;9.28;89.35
50302;BME280;36550;50.472;19.744;2023-04-15T00:49:33;96854.73;;;9.26;90.33
50302;BME280;36550;50.472;19.744;2023-04-15T00:57:16;96847.80;;;9.28;91.40
50302;BME280;36550;50.472;19.744;2023-04-15T01:00:56;96855.71;;;9.31;90.34
50302;BME280;36550;50.472;19.744;2023-04-15T01:04:41;96851.38;;;9.34;89.22
50302;BME280;36550;50.472;19.744;2023-04-15T01:08:53;96844.42;;;9.37;89.13
50302;BME280;36550;50.472;19.744;2023-04-15T01:12:37;96838.52;;;9.38;88.88
50302;BME280;36550;50.472;19.744;2023-04-15T01:16:22;96835.33;;;9.37;88.62
50302;BME280;36550;50.472;19.744;2023-04-15T01:20:15;96830.45;;;9.35;88.53
50302;BME280;36550;50.472;19.744;2023-04-15T01:24:11;96832.38;;;9.35;88.19
50302;BME280;36550;50.472;19.744;2023-04-15T01:28:00;96827.02;;;9.33;87.82
50302;BME280;36550;50.472;19.744;2023-04-15T01:32:06;96836.59;;;9.31;87.89
50302;BME280;36550;50.472;19.744;2023-04-15T01:35:52;96845.95;;;9.29;87.69
50302;BME280;36550;50.472;19.744;2023-04-15T01:39:37;96866.05;;;9.26;87.60
50302;BME280;36550;50.472;19.744;2023-04-15T01:43:21;96867.02;;;9.23;87.32
50302;BME280;36550;50.472;19.744;2023-04-15T01:47:06;96855.04;;;9.22;87.11
50302;BME280;36550;50.472;19.744;2023-04-15T01:50:57;96868.08;;;9.24;86.74
50302;BME280;36550;50.472;19.744;2023-04-15T01:54:21;96873.80;;;9.25;86.80
50302;BME280;36550;50.472;19.744;2023-04-15T02:01:57;96879.95;;;9.22;86.76
50302;BME280;36550;50.472;19.744;2023-04-15T02:05:34;96882.13;;;9.18;87.18
50302;BME280;36550;50.472;19.744;2023-04-15T02:13:24;96883.89;;;9.13;86.50
50302;BME280;36550;50.472;19.744;2023-04-15T02:17:14;96884.66;;;9.12;86.07
50302;BME280;36550;50.472;19.744;2023-04-15T02:21:14;96885.77;;;9.15;85.88
50302;BME280;36550;50.472;19.744;2023-04-15T02:24:45;96885.80;;;9.19;85.77
50302;BME280;36550;50.472;19.744;2023-04-15T02:28:14;96885.75;;;9.19;85.55
50302;BME280;36550;50.472;19.744;2023-04-15T02:32:03;96883.74;;;9.17;85.38
50302;BME280;36550;50.472;19.744;2023-04-15T02:36:05;96879.88;;;9.17;85.33
50302;BME280;36550;50.472;19.744;2023-04-15T02:39:58;96894.73;;;9.15;85.02
50302;BME280;36550;50.472;19.744;2023-04-15T02:43:57;96899.13;;;9.14;84.77
50302;BME280;36550;50.472;19.744;2023-04-15T02:47:42;96900.38;;;9.14;84.60
50302;BME280;36550;50.472;19.744;2023-04-15T02:51:31;96910.89;;;9.14;84.65
50302;BME280;36550;50.472;19.744;2023-04-15T02:55:19;96919.47;;;9.12;84.51
50302;BME280;36550;50.472;19.744;2023-04-15T03:02:48;96917.45;;;9.00;84.48
50302;BME280;36550;50.472;19.744;2023-04-15T03:06:41;96924.45;;;8.96;84.36
50302;BME280;36550;50.472;19.744;2023-04-15T03:10:24;96928.39;;;8.94;84.18
50302;BME280;36550;50.472;19.744;2023-04-15T03:14:23;96923.92;;;8.90;84.16
50302;BME280;36550;50.472;19.744;2023-04-15T03:18:19;96924.81;;;8.84;84.05
50302;BME280;36550;50.472;19.744;2023-04-15T03:22:16;96925.92;;;8.79;83.81
50302;BME280;36550;50.472;19.744;2023-04-15T03:26:06;96920.57;;;8.76;83.61
50302;BME280;36550;50.472;19.744;2023-04-15T03:29:57;96927.86;;;8.73;83.55
50302;BME280;36550;50.472;19.744;2023-04-15T03:33:41;96937.29;;;8.68;83.33
50302;BME280;36550;50.472;19.744;2023-04-15T03:37:36;96939.64;;;8.62;83.33
50302;BME280;36550;50.472;19.744;2023-04-15T03:41:31;96931.28;;;8.54;83.42
50302;BME280;36550;50.472;19.744;2023-04-15T03:49:12;96937.55;;;8.42;83.01
50302;BME280;36550;50.472;19.744;2023-04-15T03:53:20;96944.60;;;8.37;83.04
50302;BME280;36550;50.472;19.744;2023-04-15T03:57:22;96939.98;;;8.29;83.02
50302;BME280;36550;50.472;19.744;2023-04-15T04:01:12;96933.59;;;8.19;83.57
50302;BME280;36550;50.472;19.744;2023-04-15T04:04:59;96938.27;;;8.13;83.30
50302;BME280;36550;50.472;19.744;2023-04-15T04:12:44;96939.27;;;8.04;83.36
50302;BME280;36550;50.472;19.744;2023-04-15T04:16:18;96949.41;;;8.00;83.38
50302;BME280;36550;50.472;19.744;2023-04-15T04:20:21;96952.94;;;7.97;83.28
50302;BME280;36550;50.472;19.744;2023-04-15T04:24:23;96952.99;;;8.01;83.15
50302;BME280;36550;50.472;19.744;2023-04-15T04:28:11;96958.04;;;8.09;83.22
50302;BME280;36550;50.472;19.744;2023-04-15T04:31:54;96964.09;;;8.16;83.04
50302;BME280;36550;50.472;19.744;2023-04-15T04:35:39;96968.78;;;8.19;83.02
50302;BME280;36550;50.472;19.744;2023-04-15T04:39:27;96978.77;;;8.24;82.82
50302;BME280;36550;50.472;19.744;2023-04-15T04:43:31;96982.20;;;8.24;82.80
50302;BME280;36550;50.472;19.744;2023-04-15T04:47:17;96979.98;;;8.26;83.05
50302;BME280;36550;50.472;19.744;2023-04-15T04:51:07;96980.54;;;8.35;82.83
50302;BME280;36550;50.472;19.744;2023-04-15T04:54:35;96982.02;;;8.48;82.79
50302;BME280;36550;50.472;19.744;2023-04-15T04:57:41;96981.89;;;8.51;82.58
50302;BME280;36550;50.472;19.744;2023-04-15T05:01:38;96988.94;;;8.48;82.46
50302;BME280;36550;50.472;19.744;2023-04-15T05:05:01;96995.77;;;8.53;82.53
50302;BME280;36550;50.472;19.744;2023-04-15T05:08:44;96993.38;;;8.58;82.28
50302;BME280;36550;50.472;19.744;2023-04-15T05:12:32;96989.73;;;8.65;82.05
50302;BME280;36550;50.472;19.744;2023-04-15T05:16:30;96990.20;;;8.78;82.23
50302;BME280;36550;50.472;19.744;2023-04-15T05:20:20;96992.63;;;8.90;82.28
50302;BME280;36550;50.472;19.744;2023-04-15T05:28:02;96998.81;;;9.04;82.19
50302;BME280;36550;50.472;19.744;2023-04-15T05:32:05;97004.80;;;9.12;82.00
50302;BME280;36550;50.472;19.744;2023-04-15T05:39:34;97014.27;;;9.25;81.84
50302;BME280;36550;50.472;19.744;2023-04-15T05:43:19;97015.16;;;9.32;81.74
50302;BME280;36550;50.472;19.744;2023-04-15T05:50:51;97009.44;;;9.51;81.61
50302;BME280;36550;50.472;19.744;2023-04-15T05:54:21;97005.35;;;9.69;81.81
50302;BME280;36550;50.472;19.744;2023-04-15T06:02:08;97016.08;;;10.25;81.41
50302;BME280;36550;50.472;19.744;2023-04-15T06:05:35;97016.30;;;10.58;81.19
50302;BME280;36550;50.472;19.744;2023-04-15T06:08:40;97017.17;;;10.86;80.85
50302;BME280;36550;50.472;19.744;2023-04-15T06:12:29;97027.74;;;11.30;80.68
50302;BME280;36550;50.472;19.744;2023-04-15T06:15:53;97040.08;;;11.64;80.11
50302;BME280;36550;50.472;19.744;2023-04-15T06:18:38;97042.84;;;11.85;79.91
50302;BME280;36550;50.472;19.744;2023-04-15T06:21:23;97043.67;;;12.01;79.28
50302;BME280;36550;50.472;19.744;2023-04-15T06:24:07;97036.14;;;12.22;79.16
50302;BME280;36550;50.472;19.744;2023-04-15T06:26:51;97043.31;;;12.45;78.81
50302;BME280;36550;50.472;19.744;2023-04-15T06:29:55;97049.59;;;12.64;78.49
50302;BME280;36550;50.472;19.744;2023-04-15T06:33:07;97052.04;;;12.80;77.89
50302;BME280;36550;50.472;19.744;2023-04-15T06:35:51;97057.88;;;12.83;77.43
50302;BME280;36550;50.472;19.744;2023-04-15T06:38:35;97065.64;;;12.80;76.84
50302;BME280;36550;50.472;19.744;2023-04-15T06:41:19;97067.11;;;12.77;76.85
50302;BME280;36550;50.472;19.744;2023-04-15T06:44:03;97068.95;;;12.81;76.50
50302;BME280;36550;50.472;19.744;2023-04-15T06:46:47;97070.44;;;12.87;76.43
50302;BME280;36550;50.472;19.744;2023-04-15T06:49:31;97075.59;;;13.00;76.09
50302;BME280;36550;50.472;19.744;2023-04-15T06:52:16;97080.06;;;13.07;75.33
50302;BME280;36550;50.472;19.744;2023-04-15T06:55:00;97078.33;;;13.08;74.88
50302;BME280;36550;50.472;19.744;2023-04-15T06:57:44;97083.35;;;13.12;74.88
50302;BME280;36550;50.472;19.744;2023-04-15T07:00:28;97082.23;;;13.12;74.54
50302;BME280;36550;50.472;19.744;2023-04-15T07:03:13;97076.45;;;13.05;73.86
50302;BME280;36550;50.472;19.744;2023-04-15T07:05:58;97079.48;;;12.99;73.64
50302;BME280;36550;50.472;19.744;2023-04-15T07:08:42;97086.58;;;13.03;74.04
50302;BME280;36550;50.472;19.744;2023-04-15T07:11:26;97094.05;;;13.14;73.92
50302;BME280;36550;50.472;19.744;2023-04-15T07:14:10;97094.64;;;13.29;73.64
50302;BME280;36550;50.472;19.744;2023-04-15T07:16:54;97100.16;;;13.49;73.76
50302;BME280;36550;50.472;19.744;2023-04-15T07:19:39;97099.20;;;13.64;73.34
50302;BME280;36550;50.472;19.744;2023-04-15T07:22:23;97102.39;;;13.74;72.79
50302;BME280;36550;50.472;19.744;2023-04-15T07:25:07;97103.72;;;13.77;72.38
50302;BME280;36550;50.472;19.744;2023-04-15T07:27:51;97108.44;;;13.81;71.93
50302;BME280;36550;50.472;19.744;2023-04-15T07:30:36;97108.16;;;13.78;70.85
50302;BME280;36550;50.472;19.744;2023-04-15T07:33:20;97104.09;;;13.72;69.47
50302;BME280;36550;50.472;19.744;2023-04-15T07:36:05;97102.77;;;13.78;70.48
50302;BME280;36550;50.472;19.744;2023-04-15T07:38:49;97102.13;;;13.97;70.58
50302;BME280;36550;50.472;19.744;2023-04-15T07:41:33;97097.94;;;14.15;69.96
50302;BME280;36550;50.472;19.744;2023-04-15T07:44:17;97102.23;;;14.38;70.47
50302;BME280;36550;50.472;19.744;2023-04-15T07:47:02;97101.23;;;14.65;70.31
50302;BME280;36550;50.472;19.744;2023-04-15T07:49:47;97098.42;;;14.81;69.19
50302;BME280;36550;50.472;19.744;2023-04-15T07:52:31;97097.88;;;15.00;69.11
50302;BME280;36550;50.472;19.744;2023-04-15T07:55:18;97097.59;;;15.20;68.85
50302;BME280;36550;50.472;19.744;2023-04-15T07:58:03;97104.52;;;15.34;68.04
50302;BME280;36550;50.472;19.744;2023-04-15T08:00:48;97107.27;;;15.44;67.59
50302;BME280;36550;50.472;19.744;2023-04-15T08:03:32;97102.82;;;15.49;66.35
50302;BME280;36550;50.472;19.744;2023-04-15T08:06:16;97104.06;;;15.55;66.75
50302;BME280;36550;50.472;19.744;2023-04-15T08:09:00;97101.48;;;15.61;66.29
50302;BME280;36550;50.472;19.744;2023-04-15T08:11:44;97097.41;;;15.60;65.74
50302;BME280;36550;50.472;19.744;2023-04-15T08:14:28;97099.20;;;15.64;65.62
50302;BME280;36550;50.472;19.744;2023-04-15T08:17:13;97097.52;;;15.71;63.67
50302;BME280;36550;50.472;19.744;2023-04-15T08:19:57;97099.98;;;15.69;63.70
50302;BME280;36550;50.472;19.744;2023-04-15T08:22:41;97100.02;;;15.73;64.23
50302;BME280;36550;50.472;19.744;2023-04-15T08:25:25;97098.60;;;15.80;64.41
50302;BME280;36550;50.472;19.744;2023-04-15T08:28:10;97099.65;;;15.77;63.05
50302;BME280;36550;50.472;19.744;2023-04-15T08:30:54;97103.52;;;15.73;63.31
50302;BME280;36550;50.472;19.744;2023-04-15T08:33:38;97107.77;;;15.76;63.47
50302;BME280;36550;50.472;19.744;2023-04-15T08:36:23;97108.77;;;15.80;63.49
50302;BME280;36550;50.472;19.744;2023-04-15T08:39:07;97115.94;;;15.85;62.94
50302;BME280;36550;50.472;19.744;2023-04-15T08:41:55;97117.70;;;15.90;62.92
50302;BME280;36550;50.472;19.744;2023-04-15T08:44:45;97119.61;;;15.99;62.89
50302;BME280;36550;50.472;19.744;2023-04-15T08:47:30;97125.34;;;16.10;62.54
50302;BME280;36550;50.472;19.744;2023-04-15T08:50:17;97118.48;;;16.24;61.97
50302;BME280;36550;50.472;19.744;2023-04-15T08:53:02;97113.02;;;16.41;61.15
50302;BME280;36550;50.472;19.744;2023-04-15T08:55:50;97110.44;;;16.57;60.15
50302;BME280;36550;50.472;19.744;2023-04-15T08:58:34;97110.89;;;16.61;57.66
50302;BME280;36550;50.472;19.744;2023-04-15T09:01:19;97110.08;;;16.74;58.79
50302;BME280;36550;50.472;19.744;2023-04-15T09:04:04;97110.25;;;16.87;58.72
50302;BME280;36550;50.472;19.744;2023-04-15T09:06:50;97111.92;;;16.98;58.18
50302;BME280;36550;50.472;19.744;2023-04-15T09:09:34;97115.54;;;17.08;58.02
50302;BME280;36550;50.472;19.744;2023-04-15T09:12:20;97114.96;;;17.22;58.37
50302;BME280;36550;50.472;19.744;2023-04-15T09:15:05;97117.43;;;17.45;57.97
50302;BME280;36550;50.472;19.744;2023-04-15T09:17:49;97116.05;;;17.61;57.39
50302;BME280;36550;50.472;19.744;2023-04-15T09:20:41;97116.98;;;17.66;55.66
50302;BME280;36550;50.472;19.744;2023-04-15T09:23:26;97112.80;;;17.72;55.66
50302;BME280;36550;50.472;19.744;2023-04-15T09:26:10;97111.70;;;17.80;53.83
50302;BME280;36550;50.472;19.744;2023-04-15T09:29:02;97111.59;;;17.78;52.01
50302;BME280;36550;50.472;19.744;2023-04-15T09:31:46;97114.27;;;17.89;53.03
50302;BME280;36550;50.472;19.744;2023-04-15T09:34:35;97115.95;;;18.03;52.50
50302;BME280;36550;50.472;19.744;2023-04-15T09:37:34;97120.21;;;18.17;53.37
50302;BME280;36550;50.472;19.744;2023-04-15T09:40:33;97121.17;;;18.39;53.39
50302;BME280;36550;50.472;19.744;2023-04-15T09:43:17;97118.00;;;18.51;52.43
50302;BME280;36550;50.472;19.744;2023-04-15T09:46:01;97125.24;;;18.40;48.84
50302;BME280;36550;50.472;19.744;2023-04-15T09:48:45;97126.79;;;18.13;49.16
50302;BME280;36550;50.472;19.744;2023-04-15T09:51:34;97131.95;;;18.02;50.74
50302;BME280;36550;50.472;19.744;2023-04-15T09:54:19;97134.98;;;18.04;51.24
50302;BME280;36550;50.472;19.744;2023-04-15T09:57:08;97136.27;;;18.05;51.53
50302;BME280;36550;50.472;19.744;2023-04-15T09:59:52;97136.08;;;18.05;51.00
50302;BME280;36550;50.472;19.744;2023-04-15T10:02:40;97133.92;;;18.01;50.74
50302;BME280;36550;50.472;19.744;2023-04-15T10:05:26;97135.89;;;17.92;50.50
50302;BME280;36550;50.472;19.744;2023-04-15T10:08:11;97136.84;;;17.84;50.72
50302;BME280;36550;50.472;19.744;2023-04-15T10:10:55;97132.75;;;17.85;51.51
50302;BME280;36550;50.472;19.744;2023-04-15T10:13:40;97134.93;;;17.81;49.92
50302;BME280;36550;50.472;19.744;2023-04-15T10:16:26;97133.98;;;17.79;50.98
50302;BME280;36550;50.472;19.744;2023-04-15T10:19:13;97136.63;;;17.77;50.84
50302;BME280;36550;50.472;19.744;2023-04-15T10:21:59;97132.48;;;17.68;51.32
50302;BME280;36550;50.472;19.744;2023-04-15T10:24:44;97135.14;;;17.62;51.02
50302;BME280;36550;50.472;19.744;2023-04-15T10:27:29;97133.70;;;17.52;51.00
50302;BME280;36550;50.472;19.744;2023-04-15T10:30:14;97135.74;;;17.48;51.37
50302;BME280;36550;50.472;19.744;2023-04-15T10:32:59;97134.70;;;17.48;51.71
50302;BME280;36550;50.472;19.744;2023-04-15T10:35:43;97137.23;;;17.46;51.19
50302;BME280;36550;50.472;19.744;2023-04-15T10:38:34;97137.52;;;17.38;51.18
50302;BME280;36550;50.472;19.744;2023-04-15T10:44:04;97136.59;;;17.42;51.86
50302;BME280;36550;50.472;19.744;2023-04-15T10:46:50;97139.35;;;17.49;51.94
50302;BME280;36550;50.472;19.744;2023-04-15T10:49:42;97135.64;;;17.62;51.69
50302;BME280;36550;50.472;19.744;2023-04-15T10:52:27;97137.15;;;17.75;50.92
50302;BME280;36550;50.472;19.744;2023-04-15T10:55:12;97134.63;;;17.88;50.78
50302;BME280;36550;50.472;19.744;2023-04-15T10:57:59;97128.13;;;18.02;50.53
50302;BME280;36550;50.472;19.744;2023-04-15T11:00:48;97132.36;;;18.05;49.35
50302;BME280;36550;50.472;19.744;2023-04-15T11:03:38;97132.20;;;18.11;50.02
50302;BME280;36550;50.472;19.744;2023-04-15T11:06:43;97135.29;;;18.15;49.96
50302;BME280;36550;50.472;19.744;2023-04-15T11:09:31;97138.41;;;18.22;50.02
50302;BME280;36550;50.472;19.744;2023-04-15T11:12:19;97137.06;;;18.19;48.35
50302;BME280;36550;50.472;19.744;2023-04-15T11:18:20;97131.45;;;18.03;48.63
50302;BME280;36550;50.472;19.744;2023-04-15T11:21:06;97132.48;;;17.92;48.64
50302;BME280;36550;50.472;19.744;2023-04-15T11:23:50;97130.66;;;17.67;46.94
50302;BME280;36550;50.472;19.744;2023-04-15T11:26:35;97135.55;;;17.34;46.51
50302;BME280;36550;50.472;19.744;2023-04-15T11:29:18;97137.54;;;17.00;46.29
50302;BME280;36550;50.472;19.744;2023-04-15T11:32:08;97139.71;;;16.78;47.29
50302;BME280;36550;50.472;19.744;2023-04-15T11:34:52;97136.00;;;16.61;47.98
50302;BME280;36550;50.472;19.744;2023-04-15T11:37:36;97137.91;;;16.34;47.13
50302;BME280;36550;50.472;19.744;2023-04-15T11:40:24;97135.16;;;16.12;47.65
50302;BME280;36550;50.472;19.744;2023-04-15T11:43:18;97134.26;;;16.04;48.31
50302;BME280;36550;50.472;19.744;2023-04-15T11:46:05;97135.28;;;15.92;46.75
50302;BME280;36550;50.472;19.744;2023-04-15T11:48:49;97136.61;;;15.85;48.11
50302;BME280;36550;50.472;19.744;2023-04-15T11:51:33;97138.83;;;15.79;47.35
50302;BME280;36550;50.472;19.744;2023-04-15T11:54:18;97136.07;;;15.86;47.62
50302;BME280;36550;50.472;19.744;2023-04-15T11:57:02;97140.09;;;16.02;48.04
50302;BME280;36550;50.472;19.744;2023-04-15T11:59:46;97138.83;;;16.20;48.51
50302;BME280;36550;50.472;19.744;2023-04-15T12:02:31;97134.02;;;16.46;48.97
50302;BME280;36550;50.472;19.744;2023-04-15T12:05:15;97137.30;;;16.69;49.23
50302;BME280;36550;50.472;19.744;2023-04-15T12:07:59;97135.71;;;16.92;48.71
50302;BME280;36550;50.472;19.744;2023-04-15T12:10:44;97137.77;;;17.02;47.72
50302;BME280;36550;50.472;19.744;2023-04-15T12:13:28;97139.13;;;17.07;47.73
50302;BME280;36550;50.472;19.744;2023-04-15T12:16:17;97139.64;;;17.16;47.89
50302;BME280;36550;50.472;19.744;2023-04-15T12:19:05;97143.25;;;17.24;47.84
50302;BME280;36550;50.472;19.744;2023-04-15T12:21:56;97145.30;;;17.29;46.37
50302;BME280;36550;50.472;19.744;2023-04-15T12:24:43;97142.05;;;17.37;45.75
50302;BME280;36550;50.472;19.744;2023-04-15T12:27:30;97140.98;;;17.40;46.74
50302;BME280;36550;50.472;19.744;2023-04-15T12:30:15;97141.30;;;17.45;46.95
50302;BME280;36550;50.472;19.744;2023-04-15T12:32:59;97137.69;;;17.49;45.71
50302;BME280;36550;50.472;19.744;2023-04-15T12:35:44;97138.70;;;17.43;45.53
50302;BME280;36550;50.472;19.744;2023-04-15T12:38:29;97136.88;;;17.31;46.16
50302;BME280;36550;50.472;19.744;2023-04-15T12:41:15;97136.29;;;17.17;45.90
50302;BME280;36550;50.472;19.744;2023-04-15T12:43:59;97140.51;;;16.95;44.21
50302;BME280;36550;50.472;19.744;2023-04-15T12:46:44;97138.58;;;16.76;45.58
50302;BME280;36550;50.472;19.744;2023-04-15T12:49:29;97140.49;;;16.68;46.12
50302;BME280;36550;50.472;19.744;2023-04-15T12:52:18;97140.50;;;16.62;45.78
50302;BME280;36550;50.472;19.744;2023-04-15T12:55:03;97144.81;;;16.56;45.15
50302;BME280;36550;50.472;19.744;2023-04-15T12:57:47;97143.67;;;16.50;44.63
50302;BME280;36550;50.472;19.744;2023-04-15T13:00:33;97145.34;;;16.53;44.97
50302;BME280;36550;50.472;19.744;2023-04-15T13:03:17;97148.08;;;16.62;44.61
50302;BME280;36550;50.472;19.744;2023-04-15T13:06:02;97146.82;;;16.72;43.82
50302;BME280;36550;50.472;19.744;2023-04-15T13:08:48;97149.10;;;16.78;42.58
50302;BME280;36550;50.472;19.744;2023-04-15T13:11:33;97152.55;;;16.87;43.49
50302;BME280;36550;50.472;19.744;2023-04-15T13:14:17;97153.21;;;16.90;43.24
50302;BME280;36550;50.472;19.744;2023-04-15T13:17:01;97156.22;;;16.94;43.71
50302;BME280;36550;50.472;19.744;2023-04-15T13:19:46;97159.24;;;17.07;44.46
50302;BME280;36550;50.472;19.744;2023-04-15T13:22:30;97161.38;;;17.21;44.89
50302;BME280;36550;50.472;19.744;2023-04-15T13:25:14;97162.39;;;17.36;44.36
50302;BME280;36550;50.472;19.744;2023-04-15T13:27:58;97160.96;;;17.45;43.84
50302;BME280;36550;50.472;19.744;2023-04-15T13:30:44;97158.08;;;17.51;43.61
50302;BME280;36550;50.472;19.744;2023-04-15T13:33:28;97161.39;;;17.55;44.46
50302;BME280;36550;50.472;19.744;2023-04-15T13:36:12;97161.35;;;17.59;44.77
50302;BME280;36550;50.472;19.744;2023-04-15T13:38:56;97164.44;;;17.56;44.83
50302;BME280;36550;50.472;19.744;2023-04-15T13:41:41;97165.83;;;17.53;44.73
50302;BME280;36550;50.472;19.744;2023-04-15T13:44:25;97165.24;;;17.46;44.50
50302;BME280;36550;50.472;19.744;2023-04-15T13:47:09;97164.04;;;17.36;44.85
50302;BME280;36550;50.472;19.744;2023-04-15T13:49:52;97168.48;;;17.28;45.13
50302;BME280;36550;50.472;19.744;2023-04-15T13:52:38;97175.52;;;17.14;44.54
50302;BME280;36550;50.472;19.744;2023-04-15T13:55:23;97180.64;;;16.77;44.99
50302;BME280;36550;50.472;19.744;2023-04-15T13:58:07;97188.81;;;16.30;45.87
50302;BME280;36550;50.472;19.744;2023-04-15T14:00:51;97193.68;;;15.80;47.49
50302;BME280;36550;50.472;19.744;2023-04-15T14:03:35;97191.24;;;15.33;48.94
50302;BME280;36550;50.472;19.744;2023-04-15T14:06:19;97191.56;;;14.95;50.33
50302;BME280;36550;50.472;19.744;2023-04-15T14:09:03;97189.94;;;14.71;51.32
50302;BME280;36550;50.472;19.744;2023-04-15T14:11:47;97195.62;;;14.50;51.74
50302;BME280;36550;50.472;19.744;2023-04-15T14:14:30;97193.90;;;14.31;52.15
50302;BME280;36550;50.472;19.744;2023-04-15T14:17:14;97189.41;;;14.20;51.84
50302;BME280;36550;50.472;19.744;2023-04-15T14:19:59;97195.69;;;14.12;52.79
50302;BME280;36550;50.472;19.744;2023-04-15T14:22:42;97197.52;;;14.07;52.84
50302;BME280;36550;50.472;19.744;2023-04-15T14:25:26;97199.55;;;14.05;53.04
50302;BME280;36550;50.472;19.744;2023-04-15T14:28:10;97197.11;;;14.09;53.11
50302;BME280;36550;50.472;19.744;2023-04-15T14:30:55;97196.46;;;14.16;52.97
50302;BME280;36550;50.472;19.744;2023-04-15T14:33:38;97191.83;;;14.27;52.82
50302;BME280;36550;50.472;19.744;2023-04-15T14:36:23;97191.34;;;14.44;52.78
50302;BME280;36550;50.472;19.744;2023-04-15T14:39:07;97190.69;;;14.65;52.48
50302;BME280;36550;50.472;19.744;2023-04-15T14:41:52;97189.77;;;14.92;52.60
50302;BME280;36550;50.472;19.744;2023-04-15T14:44:35;97190.76;;;15.19;51.98
50302;BME280;36550;50.472;19.744;2023-04-15T14:47:19;97192.48;;;15.33;50.65
50302;BME280;36550;50.472;19.744;2023-04-15T14:50:03;97194.45;;;15.39;50.80
50302;BME280;36550;50.472;19.744;2023-04-15T14:52:47;97194.77;;;15.38;50.45
50302;BME280;36550;50.472;19.744;2023-04-15T14:55:32;97197.13;;;15.33;50.70
50302;BME280;36550;50.472;19.744;2023-04-15T14:58:16;97199.48;;;15.26;51.05
50302;BME280;36550;50.472;19.744;2023-04-15T15:01:00;97207.16;;;15.22;51.28
50302;BME280;36550;50.472;19.744;2023-04-15T15:03:45;97210.86;;;15.09;50.54
50302;BME280;36550;50.472;19.744;2023-04-15T15:06:29;97205.74;;;14.94;50.54
50302;BME280;36550;50.472;19.744;2023-04-15T15:09:14;97208.38;;;14.76;49.22
50302;BME280;36550;50.472;19.744;2023-04-15T15:11:58;97215.08;;;14.53;51.16
50302;BME280;36550;50.472;19.744;2023-04-15T15:14:42;97214.96;;;14.31;51.72
50302;BME280;36550;50.472;19.744;2023-04-15T15:17:25;97217.08;;;14.04;53.92
50302;BME280;36550;50.472;19.744;2023-04-15T15:20:10;97223.07;;;13.79;54.31
50302;BME280;36550;50.472;19.744;2023-04-15T15:22:53;97219.81;;;13.61;54.06
50302;BME280;36550;50.472;19.744;2023-04-15T15:25:38;97219.81;;;13.51;54.56
50302;BME280;36550;50.472;19.744;2023-04-15T15:28:22;97216.05;;;13.45;54.87
50302;BME280;36550;50.472;19.744;2023-04-15T15:31:06;97219.30;;;13.40;54.28
50302;BME280;36550;50.472;19.744;2023-04-15T15:33:50;97222.13;;;13.32;54.67
50302;BME280;36550;50.472;19.744;2023-04-15T15:36:35;97223.31;;;13.30;54.76
50302;BME280;36550;50.472;19.744;2023-04-15T15:39:19;97226.44;;;13.30;55.17
50302;BME280;36550;50.472;19.744;2023-04-15T15:42:05;97225.55;;;13.31;55.04
50302;BME280;36550;50.472;19.744;2023-04-15T15:44:50;97229.50;;;13.31;54.83
50302;BME280;36550;50.472;19.744;2023-04-15T15:47:35;97233.50;;;13.34;54.76
50302;BME280;36550;50.472;19.744;2023-04-15T15:50:19;97235.05;;;13.41;55.09
50302;BME280;36550;50.472;19.744;2023-04-15T15:53:03;97236.33;;;13.51;55.29
50302;BME280;36550;50.472;19.744;2023-04-15T15:55:47;97235.17;;;13.57;55.08
50302;BME280;36550;50.472;19.744;2023-04-15T15:58:32;97236.14;;;13.63;55.07
50302;BME280;36550;50.472;19.744;2023-04-15T16:01:16;97238.27;;;13.62;55.78
50302;BME280;36550;50.472;19.744;2023-04-15T16:03:59;97238.02;;;13.48;57.76
50302;BME280;36550;50.472;19.744;2023-04-15T16:06:44;97238.81;;;13.36;57.70
50302;BME280;36550;50.472;19.744;2023-04-15T16:09:29;97238.84;;;13.23;58.75
50302;BME280;36550;50.472;19.744;2023-04-15T16:12:14;97236.50;;;13.15;58.78
50302;BME280;36550;50.472;19.744;2023-04-15T16:14:58;97232.86;;;13.05;60.09
50302;BME280;36550;50.472;19.744;2023-04-15T16:17:42;97234.41;;;12.96;61.49
50302;BME280;36550;50.472;19.744;2023-04-15T16:20:25;97230.33;;;12.88;60.82
50302;BME280;36550;50.472;19.744;2023-04-15T16:23:13;97230.08;;;12.82;62.31
50302;BME280;36550;50.472;19.744;2023-04-15T16:25:57;97233.00;;;12.73;62.76
50302;BME280;36550;50.472;19.744;2023-04-15T16:28:41;97234.21;;;12.68;62.86
50302;BME280;36550;50.472;19.744;2023-04-15T16:31:25;97233.73;;;12.69;63.29
50302;BME280;36550;50.472;19.744;2023-04-15T16:34:10;97237.14;;;12.78;63.58
50302;BME280;36550;50.472;19.744;2023-04-15T16:36:53;97245.80;;;12.90;63.55
50302;BME280;36550;50.472;19.744;2023-04-15T16:39:38;97254.07;;;13.08;62.95
50302;BME280;36550;50.472;19.744;2023-04-15T16:42:22;97263.02;;;13.26;62.46